createdAt,value
2022-10-14T00:06:22.063Z,968.43
2022-10-14T00:21:24.295Z,968.34
2022-10-14T00:36:26.697Z,968.32
2022-10-14T00:51:28.907Z,968.28
2022-10-14T01:06:31.155Z,968.23
2022-10-14T01:21:33.375Z,968.24
2022-10-14T01:36:35.571Z,968.47
2022-10-14T01:51:37.788Z,968.49
2022-10-14T02:06:40.030Z,968.59
2022-10-14T02:21:42.229Z,968.74
2022-10-14T02:36:44.457Z,968.8
2022-10-14T02:51:46.740Z,968.74
2022-10-14T03:06:49.105Z,968.67
2022-10-14T03:21:51.303Z,968.53
2022-10-14T03:36:53.523Z,968.49
2022-10-14T03:51:55.743Z,968.46
2022-10-14T04:06:57.927Z,968.71
2022-10-14T04:22:00.169Z,968.71
2022-10-14T04:37:02.383Z,968.48
2022-10-14T04:52:04.609Z,968.66
2022-10-14T05:07:06.867Z,968.81
2022-10-14T05:22:09.091Z,968.73
2022-10-14T05:37:11.346Z,968.81
2022-10-14T05:52:13.530Z,968.88
2022-10-14T06:07:15.789Z,968.87
2022-10-14T06:22:17.983Z,968.94
2022-10-14T06:37:20.138Z,968.86
2022-10-14T06:52:22.711Z,968.91
2022-10-14T07:07:25.131Z,968.93
2022-10-14T07:22:27.305Z,968.8
2022-10-14T07:37:29.567Z,968.81
2022-10-14T07:52:31.778Z,968.69
2022-10-14T08:07:34.001Z,968.79
2022-10-14T08:22:36.221Z,968.91
2022-10-14T08:37:38.441Z,968.88
2022-10-14T08:52:40.669Z,968.92
2022-10-14T09:07:42.962Z,968.99
2022-10-14T09:22:45.263Z,968.81
2022-10-14T09:37:47.512Z,968.69
2022-10-14T09:52:49.728Z,968.69
2022-10-14T10:07:52.145Z,968.81
2022-10-14T10:22:54.335Z,968.76
2022-10-14T10:37:56.572Z,968.76
2022-10-14T10:52:58.824Z,968.68
2022-10-14T11:08:01.056Z,968.87
2022-10-14T11:23:03.371Z,968.89
2022-10-14T11:38:05.593Z,968.84
2022-10-14T11:53:07.989Z,968.84
2022-10-14T12:08:10.150Z,968.79
2022-10-14T12:23:12.402Z,968.77
2022-10-14T12:38:14.623Z,968.74
2022-10-14T12:53:16.821Z,968.64
2022-10-14T13:08:19.026Z,968.66
2022-10-14T13:23:21.244Z,968.45
2022-10-14T13:38:23.474Z,968.52
2022-10-14T13:53:25.711Z,968.56
2022-10-14T14:08:40.213Z,968.53
2022-10-14T14:23:44.138Z,968.56
2022-10-14T14:38:46.353Z,968.59
2022-10-14T14:53:48.628Z,968.71
2022-10-14T15:08:51.005Z,968.64
2022-10-14T15:23:53.339Z,968.39
2022-10-14T15:38:55.558Z,967.79
2022-10-14T15:53:57.780Z,967.54
2022-10-14T16:09:00.054Z,967.45
2022-10-14T16:24:02.364Z,967.51
2022-10-14T16:39:04.693Z,967.81
2022-10-14T16:54:06.876Z,967.66
2022-10-14T17:09:09.200Z,967.41
2022-10-14T17:24:11.504Z,967.43
2022-10-14T17:39:17.642Z,967.49
2022-10-14T17:54:25.267Z,967.39
2022-10-14T18:09:27.447Z,967.23
2022-10-14T18:24:29.700Z,967.06
2022-10-14T18:39:32.113Z,966.82
2022-10-14T18:54:34.303Z,966.48
2022-10-14T19:09:36.639Z,966.42
2022-10-14T19:24:38.877Z,966.11
2022-10-14T19:39:41.353Z,965.81
2022-10-14T19:54:43.543Z,965.62
2022-10-14T20:09:45.733Z,965.28
2022-10-14T20:24:47.942Z,965.14
2022-10-14T20:39:50.282Z,964.66
2022-10-14T20:54:52.517Z,964.64
2022-10-14T21:09:54.740Z,964.69
2022-10-14T21:24:56.945Z,964.49
2022-10-14T21:39:59.136Z,964.54
2022-10-14T21:55:01.327Z,964.31
2022-10-14T22:10:03.570Z,964.09
2022-10-14T22:25:05.772Z,964.02
2022-10-14T22:40:08.002Z,963.87
2022-10-14T22:55:10.226Z,963.69
2022-10-14T23:10:12.461Z,963.66
2022-10-14T23:25:14.659Z,963.6
2022-10-14T23:40:17.147Z,963.55
2022-10-14T23:55:19.380Z,963.63
